Detroit Metropolitan Wayne County Airport
KDTW : now visible

Airfield :











YOU CAN JOIN US ON...

 
LOGIN :

Register | Disclaimer

   EN    FR    IT 

 









Legend :    VFR   Marginal VFR   IFR   Intensive IFR   Very Intensive IFR
Visi :
Ceiling :
>= 8 km
>= 3000ft
5 to 8 km
1000 to 3000 ft
1500m to 5 km
500 to 1000 ft
800 to 1500m
200 to 500 ft
< 800m
< 200 ft
Symbols :   Thunderstorms  Fog  Heavy snow  Heavy precipitations  Wind > 20 kt






- Airport Elevation : 645 ft
- IATA code : DTW


KDTW - Detroit Metropolitan Wayne County

CURRENT METAR :
  • 280317Z 30007KT 9SM BKN024 BKN070 OVC180 04/02 A2965 RMK AO2 T00440022 $

EXPIRED METARs :
  • 280253Z 30009KT 10SM FEW027 SCT075 BKN180 04/02 A2964 RMK AO2 SLP039 T00440017 53035 $
  • 280153Z 31009KT 10SM FEW060 BKN075 OVC120 04/02 A2960 RMK AO2 PRESRR SLP027 T00440022 $
  • 272153Z 33009KT 5SM -RA BR BKN010 OVC026 06/04 A2943 RMK AO2 PRESRR SLP969 P0004 T00560044 $

TAF KDTW
Valid from the 28 at 01:00 until the 29 at 06:00 UTC


280106Z 2801/2906 32011KT P6SM SCT015 BKN035 OVC070
FM280300 31009KT P6SM BKN015 OVC025
FM281000 31006KT P6SM SCT015 OVC035
FM281700 27007KT P6SM OVC025
FM282100 22005KT P6SM SCT035 SCT250
FM290200 16005KT P6SM BKN200
KZOB FIR / North America



MET'MAP, your aeronautical weather chart ! - Copyright ORBIFLY December 2007 - Disclaimer

ORBIFLY MET'MAP TEAM :

Programming & Development : Alexandra Zaïnal
Original concept : Baudouin d'Aumeries
Technical & hardware support : Manuel Goepfert
Assistance : Marc-Olivier Méhu




SOURCES & CREDITS :

   NOAA       Earth
Advisory